• Join FlightAware (Why Join?)
  • Login
  • US Flag 
07:00AM EDT


 

Airport Tracker/Info


-or-


 

Live Flight TrackerFlight Track Log ✈ FIN666 ✈ 30-Mar-2014 ✈ EKCH / CPH - EFHK / HEL

Flight Track Log - Related Links

Times and Time Zones

All times are in EDT time to prevent confusion due to time zone crossing. See the FIN666 flight status page for this flight to view local times or setup timezone preferences in your user account.

Time Position Orientation Groundspeed Altitude Reporting Facility
EDT Latitude Longitude Course Direction KTS MPH feet Rate Location/Type
07:30AM 55.8300 13.0940 49° Northeast  Level Estimated
07:31AM 55.9003 13.2410 49° Northeast  Level Estimated
07:32AM 55.9705 13.3886 50° Northeast  Level Estimated
07:33AM 56.0405 13.5368 50° Northeast  Level Estimated
07:34AM 56.1103 13.6855 50° Northeast  Level Estimated
07:35AM 56.1799 13.8347 50° Northeast  Level Estimated
07:36AM 56.2493 13.9844 50° Northeast  Level Estimated
07:37AM 56.3236 14.1456 50° Northeast  Level Estimated
07:38AM 56.3977 14.3075 50° Northeast  Level Estimated
07:39AM 56.4715 14.4699 51° Northeast  Level Estimated
07:40AM 56.5452 14.6330 51° Northeast  Level Estimated
07:41AM 56.6186 14.7968 51° Northeast  Level Estimated
07:42AM 56.6918 14.9611 51° Northeast  Level Estimated
07:43AM 56.7648 15.1262 51° Northeast  Level Estimated
07:44AM 56.8376 15.2918 51° Northeast  Level Estimated
07:45AM 56.9101 15.4581 51° Northeast  Level Estimated
07:46AM 56.9825 15.6250 51° Northeast  Level Estimated
07:47AM 57.0546 15.7926 52° Northeast  Level Estimated
07:48AM 57.1265 15.9609 52° Northeast  Level Estimated
07:49AM 57.1981 16.1298 52° Northeast  Level Estimated
07:50AM 57.2686 16.2969 52° Northeast  Level Estimated
07:51AM 57.3387 16.4647 52° Northeast  Level Estimated
07:52AM 57.4087 16.6331 52° Northeast  Level Estimated
07:53AM 57.4785 16.8021 52° Northeast  Level Estimated
07:54AM 57.5480 16.9718 53° Northeast  Level Estimated
07:55AM 57.6173 17.1422 53° Northeast  Level Estimated
07:56AM 57.6863 17.3132 53° Northeast  Level Estimated
07:57AM 57.7551 17.4848 53° Northeast  Level Estimated
07:58AM 57.8237 17.6571 53° Northeast  Level Estimated
07:59AM 57.8921 17.8301 53° Northeast  Level Estimated
08:00AM 57.9602 18.0037 53° Northeast  Level Estimated
08:01AM 58.0281 18.1780 54° Northeast  Level Estimated
08:02AM 58.0957 18.3529 54° Northeast  Level Estimated
08:03AM 58.1632 18.5285 54° Northeast  Level Estimated
08:04AM 58.2303 18.7048 54° Northeast  Level Estimated
08:05AM 58.2972 18.8817 54° Northeast  Level Estimated
08:06AM 58.3639 19.0593 54° Northeast  Level Estimated
08:07AM 58.4303 19.2376 55° Northeast  Level Estimated
08:08AM 58.4965 19.4165 55° Northeast  Level Estimated
08:09AM 58.5624 19.5961 55° Northeast  Level Estimated
08:10AM 58.6281 19.7764 55° Northeast  Level Estimated
08:11AM 58.6935 19.9574 55° Northeast  Level Estimated
08:12AM 58.7587 20.1390 55° Northeast  Level Estimated
08:13AM 58.8236 20.3214 55° Northeast  Level Estimated
08:14AM 58.8883 20.5044 56° Northeast  Level Estimated
08:15AM 58.9527 20.6881 56° Northeast  Level Estimated
08:16AM 59.0168 20.8725 56° Northeast  Level Estimated
08:17AM 59.0807 21.0576 56° Northeast  Level Estimated
08:18AM 59.1443 21.2433 56° Northeast  Level Estimated
08:19AM 59.2076 21.4298 56° Northeast  Level Estimated
08:20AM 59.2707 21.6169 57° Northeast  Level Estimated
08:21AM 59.3335 21.8047 57° Northeast  Level Estimated
08:22AM 59.3960 21.9933 57° Northeast  Level Estimated
08:23AM 59.4583 22.1825 57° Northeast  Level Estimated
08:24AM 59.5203 22.3724 57° Northeast  Level Estimated
08:25AM 59.5820 22.5630 57° Northeast  Level Estimated
08:26AM 59.6434 22.7544 58° Northeast  Level Estimated
08:27AM 59.7046 22.9464 58° Northeast  Level Estimated
08:28AM 59.7654 23.1391 58° Northeast  Level Estimated
08:29AM 59.8260 23.3325 58° Northeast  Level Estimated
08:30AM 59.8863 23.5267 58° Northeast  Level Estimated
08:31AM 59.9464 23.7215 58° Northeast  Level Estimated
08:32AM 60.0061 23.9170 59° Northeast  Level Estimated
08:33AM 60.0655 24.1133 59° Northeast  Level Estimated
08:34AM 60.1247 24.3102 59° Northeast  Level Estimated
08:35AM 60.1835 24.5079 59° Northeast  Level Estimated
08:36AM 60.2421 24.7062 59° Northeast  Level Estimated
08:37AM 60.3003 24.9053 59° Northeast  Level Estimated
08:38AM 60.3172 24.9633 60° Northeast  Level Estimated
08:39AM 60.3172 24.9633 North  Level Estimated
08:40AM 60.3172 24.9633 North  Level Estimated
08:41AM 60.3172 24.9633 North  Level Estimated
08:42AM 60.3172 24.9633 North  Level Estimated
08:43AM 60.3172 24.9633 North  Level Estimated
08:44AM 60.3172 24.9633 North  Level Estimated
08:45AM 60.3172 24.9633 North  Level Estimated
08:46AM 60.3172 24.9633 North  Level Estimated
08:47AM 60.3172 24.9633 North  Level Estimated
08:48AM 60.3172 24.9633 North  Level Estimated